createdAt,value
2023-01-23T00:00:52.710Z,7.75
2023-01-23T00:03:56.501Z,7.03
2023-01-23T00:07:00.456Z,6.82
2023-01-23T00:10:02.627Z,6.95
2023-01-23T00:13:05.082Z,6.82
2023-01-23T00:16:13.044Z,6.88
2023-01-23T00:19:15.237Z,7.65
2023-01-23T00:22:19.142Z,7.85
2023-01-23T00:25:22.147Z,6.20
2023-01-23T00:28:24.199Z,6.30
2023-01-23T00:31:29.316Z,6.72
2023-01-23T00:34:33.000Z,6.43
2023-01-23T00:37:35.297Z,7.57
2023-01-23T00:40:37.682Z,5.95
2023-01-23T00:43:42.532Z,5.82
2023-01-23T00:46:45.824Z,5.90
2023-01-23T00:49:48.184Z,6.80
2023-01-23T00:52:50.548Z,5.35
2023-01-23T00:55:53.705Z,5.10
2023-01-23T00:58:56.796Z,5.78
2023-01-23T01:01:59.106Z,4.50
2023-01-23T01:05:02.037Z,5.55
2023-01-23T01:08:06.231Z,5.30
2023-01-23T01:11:08.728Z,5.43
2023-01-23T01:14:10.919Z,5.57
2023-01-23T01:17:14.131Z,5.45
2023-01-23T01:20:16.818Z,4.88
2023-01-23T01:23:20.847Z,4.47
2023-01-23T01:26:23.884Z,4.28
2023-01-23T01:29:25.899Z,5.18
2023-01-23T01:32:27.980Z,5.03
2023-01-23T01:35:30.055Z,4.50
2023-01-23T01:38:32.215Z,4.65
2023-01-23T01:41:34.452Z,5.72
2023-01-23T01:44:57.127Z,4.65
2023-01-23T01:47:59.170Z,4.88
2023-01-23T01:51:04.274Z,4.85
2023-01-23T01:54:38.534Z,4.38
2023-01-23T01:57:45.822Z,4.70
2023-01-23T02:00:53.836Z,4.72
2023-01-23T02:03:55.911Z,4.22
2023-01-23T02:07:01.124Z,5.53
2023-01-23T02:10:06.101Z,4.00
2023-01-23T02:13:33.855Z,4.85
2023-01-23T02:16:41.777Z,5.35
2023-01-23T02:20:09.563Z,6.03
2023-01-23T02:23:43.411Z,5.70
2023-01-23T02:26:48.078Z,5.22
2023-01-23T02:29:53.339Z,5.88
2023-01-23T02:32:56.519Z,5.30
2023-01-23T02:36:00.968Z,5.43
2023-01-23T02:39:14.865Z,5.38
2023-01-23T02:42:17.623Z,5.25
2023-01-23T02:45:23.905Z,4.32
2023-01-23T02:48:26.120Z,4.72
2023-01-23T02:51:28.280Z,4.25
2023-01-23T02:54:31.997Z,5.60
2023-01-23T02:57:34.976Z,3.83
2023-01-23T03:00:37.168Z,4.45
2023-01-23T03:03:42.316Z,6.05
2023-01-23T03:06:44.449Z,4.82
2023-01-23T03:09:48.030Z,6.18
2023-01-23T03:12:50.180Z,5.53
2023-01-23T03:15:56.495Z,5.13
2023-01-23T03:19:01.731Z,5.10
2023-01-23T03:22:05.368Z,5.78
2023-01-23T03:25:07.998Z,5.25
2023-01-23T03:28:33.750Z,5.68
2023-01-23T03:31:35.976Z,4.93
2023-01-23T03:34:38.863Z,5.95
2023-01-23T03:37:41.936Z,5.43
2023-01-23T03:41:14.645Z,5.13
2023-01-23T03:44:19.437Z,5.85
2023-01-23T03:47:22.325Z,5.32
2023-01-23T03:50:25.036Z,4.40
2023-01-23T03:53:27.418Z,6.05
2023-01-23T03:56:29.881Z,5.20
2023-01-23T03:59:32.556Z,5.70
2023-01-23T04:02:34.947Z,6.60
2023-01-23T04:05:39.363Z,7.80
2023-01-23T04:08:42.409Z,7.32
2023-01-23T04:11:45.202Z,6.85
2023-01-23T04:14:48.630Z,7.15
2023-01-23T04:17:51.545Z,6.82
2023-01-23T04:20:54.331Z,6.32
2023-01-23T04:23:56.691Z,5.82
2023-01-23T04:26:58.880Z,6.55
2023-01-23T04:30:03.657Z,6.65
2023-01-23T04:33:06.803Z,6.53
2023-01-23T04:36:11.494Z,5.15
2023-01-23T04:39:13.746Z,5.40
2023-01-23T04:42:19.030Z,5.93
2023-01-23T04:45:38.935Z,6.57
2023-01-23T04:49:13.429Z,5.45
2023-01-23T04:52:15.714Z,5.88
2023-01-23T04:55:28.294Z,5.55
2023-01-23T04:58:32.971Z,5.30
2023-01-23T05:01:38.432Z,5.13
2023-01-23T05:04:41.200Z,7.07
2023-01-23T05:07:43.973Z,4.65
2023-01-23T05:10:49.551Z,7.10
2023-01-23T05:13:53.974Z,5.35
2023-01-23T05:16:56.820Z,6.78
2023-01-23T05:20:10.277Z,5.85
2023-01-23T05:23:13.584Z,4.82
2023-01-23T05:26:22.416Z,4.60
2023-01-23T05:29:24.502Z,4.90
2023-01-23T05:32:38.239Z,5.80
2023-01-23T05:35:46.507Z,4.88
2023-01-23T05:38:48.847Z,5.53
2023-01-23T05:41:52.463Z,5.95
2023-01-23T05:45:26.686Z,5.72
2023-01-23T05:48:29.348Z,5.97
2023-01-23T05:51:34.587Z,5.93
2023-01-23T05:54:36.667Z,4.95
2023-01-23T05:57:38.844Z,5.18
2023-01-23T06:00:49.868Z,6.15
2023-01-23T06:04:14.213Z,4.80
2023-01-23T06:07:27.443Z,4.75
2023-01-23T06:10:32.604Z,5.55
2023-01-23T06:13:36.617Z,4.47
2023-01-23T06:16:39.808Z,4.55
2023-01-23T06:19:43.661Z,7.18
2023-01-23T06:22:46.939Z,3.67
2023-01-23T06:25:49.784Z,4.53
2023-01-23T06:28:53.011Z,3.65
2023-01-23T06:31:56.732Z,4.00
2023-01-23T06:34:58.898Z,2.50
2023-01-23T06:38:00.925Z,2.65
2023-01-23T06:41:04.111Z,3.63
2023-01-23T06:44:11.148Z,2.58
2023-01-23T06:47:13.518Z,2.83
2023-01-23T06:50:17.795Z,3.53
2023-01-23T06:53:19.926Z,2.60
2023-01-23T06:56:24.825Z,3.33
2023-01-23T06:59:27.817Z,3.50
2023-01-23T07:02:31.562Z,3.22
2023-01-23T07:05:37.540Z,5.13
2023-01-23T07:08:40.149Z,3.88
2023-01-23T07:11:43.092Z,4.20
2023-01-23T07:14:45.309Z,4.60
2023-01-23T07:17:50.826Z,3.70
2023-01-23T07:20:52.973Z,4.00
2023-01-23T07:23:55.042Z,4.18
2023-01-23T07:26:58.949Z,3.83
2023-01-23T07:30:01.025Z,4.22
2023-01-23T07:33:03.831Z,4.30
2023-01-23T07:36:07.208Z,4.45
2023-01-23T07:39:10.016Z,3.85
2023-01-23T07:42:12.151Z,3.67
2023-01-23T07:45:17.125Z,4.18
2023-01-23T07:48:19.372Z,3.72
2023-01-23T07:51:21.415Z,4.82
2023-01-23T07:54:23.583Z,3.92
2023-01-23T07:57:25.604Z,2.63
2023-01-23T08:00:29.703Z,4.13
2023-01-23T08:03:33.455Z,3.92
2023-01-23T08:06:36.721Z,3.72
2023-01-23T08:09:38.979Z,2.83
2023-01-23T08:12:41.090Z,4.35
2023-01-23T08:15:43.218Z,3.40
2023-01-23T08:18:46.365Z,6.07
2023-01-23T08:21:48.491Z,5.88
2023-01-23T08:24:50.653Z,5.78
2023-01-23T08:27:52.885Z,6.80
2023-01-23T08:30:55.561Z,6.45
2023-01-23T08:33:57.726Z,6.30
2023-01-23T08:37:02.034Z,6.15
2023-01-23T08:40:05.085Z,6.03
2023-01-23T08:43:07.256Z,6.90
2023-01-23T08:46:11.868Z,6.13
2023-01-23T08:49:14.055Z,6.10
2023-01-23T08:52:16.429Z,6.38
2023-01-23T08:55:19.036Z,6.70
2023-01-23T08:58:22.602Z,6.45
2023-01-23T09:01:27.752Z,7.22
2023-01-23T09:04:32.002Z,5.80
2023-01-23T09:07:37.472Z,6.13
2023-01-23T09:10:39.545Z,5.50
2023-01-23T09:13:41.967Z,6.68
2023-01-23T09:16:44.364Z,6.20
2023-01-23T09:19:46.342Z,5.82
2023-01-23T09:22:48.591Z,6.45
2023-01-23T09:25:50.792Z,7.00
2023-01-23T09:28:55.261Z,7.95
2023-01-23T09:31:58.740Z,7.88
2023-01-23T09:35:00.893Z,7.68
2023-01-23T09:38:06.912Z,7.65
2023-01-23T09:41:20.068Z,6.80
2023-01-23T09:44:42.788Z,8.05
2023-01-23T09:47:59.349Z,8.48
2023-01-23T09:51:12.022Z,9.57
2023-01-23T09:54:34.830Z,7.28
2023-01-23T09:57:43.841Z,8.70
2023-01-23T10:00:47.483Z,8.30
2023-01-23T10:03:50.041Z,8.27
2023-01-23T10:07:22.816Z,8.60
2023-01-23T10:10:52.686Z,8.50
2023-01-23T10:17:37.792Z,7.80
2023-01-23T10:21:07.381Z,6.53
2023-01-23T10:24:40.685Z,6.75
2023-01-23T10:27:46.455Z,6.32
2023-01-23T10:30:55.119Z,6.10
2023-01-23T10:34:09.333Z,6.50
2023-01-23T10:37:15.627Z,6.18
2023-01-23T10:40:40.418Z,8.70
2023-01-23T10:43:43.618Z,8.13
2023-01-23T10:46:56.547Z,7.80
2023-01-23T10:49:58.673Z,7.80
2023-01-23T10:53:09.335Z,6.95
2023-01-23T10:56:17.594Z,7.45
2023-01-23T10:59:25.870Z,7.07
2023-01-23T11:02:39.317Z,5.22
2023-01-23T11:05:52.558Z,5.72
2023-01-23T11:09:00.704Z,5.72
2023-01-23T11:12:06.969Z,6.10
2023-01-23T11:15:28.330Z,5.80
2023-01-23T11:18:36.180Z,8.20
2023-01-23T11:21:49.074Z,6.20
2023-01-23T11:24:51.203Z,6.80
2023-01-23T11:28:01.630Z,7.05
2023-01-23T11:31:16.799Z,6.05
2023-01-23T11:34:23.730Z,6.43
2023-01-23T11:37:32.323Z,6.57
2023-01-23T11:40:34.525Z,7.28
2023-01-23T11:43:36.637Z,7.30
2023-01-23T11:47:08.724Z,7.18
2023-01-23T11:50:22.775Z,7.30
2023-01-23T11:53:44.899Z,6.97
2023-01-23T11:57:01.435Z,6.40
2023-01-23T12:00:31.967Z,5.95
2023-01-23T12:03:39.920Z,7.35
2023-01-23T12:07:13.887Z,7.47
2023-01-23T12:10:42.642Z,5.72
2023-01-23T12:13:47.413Z,5.57
2023-01-23T12:17:26.540Z,6.47
2023-01-23T12:20:53.736Z,5.05
2023-01-23T12:23:56.497Z,4.70
2023-01-23T12:27:19.426Z,4.57
2023-01-23T12:30:23.678Z,4.63
2023-01-23T12:33:33.865Z,4.95
2023-01-23T12:37:06.242Z,5.10
2023-01-23T12:40:22.938Z,4.10
2023-01-23T12:43:48.345Z,5.85
2023-01-23T12:47:14.271Z,4.50
2023-01-23T12:50:22.380Z,5.28
2023-01-23T12:53:24.985Z,4.95
2023-01-23T12:56:34.083Z,4.82
2023-01-23T12:59:53.991Z,4.35
2023-01-23T13:03:46.449Z,4.95
2023-01-23T13:07:03.724Z,5.10
2023-01-23T13:10:59.313Z,4.85
2023-01-23T13:14:01.951Z,4.30
2023-01-23T13:17:31.249Z,5.80
2023-01-23T13:21:15.205Z,5.75
2023-01-23T13:25:06.327Z,4.80
2023-01-23T13:28:59.278Z,6.15
2023-01-23T13:32:22.095Z,5.28
2023-01-23T13:35:39.439Z,4.90
2023-01-23T13:38:42.518Z,4.88
2023-01-23T13:41:52.427Z,5.85
2023-01-23T13:45:21.583Z,5.95
2023-01-23T14:21:41.980Z,4.97
2023-01-23T14:24:51.633Z,5.57
2023-01-23T14:28:06.320Z,4.95
2023-01-23T14:31:30.295Z,5.28
2023-01-23T14:34:43.199Z,4.47
2023-01-23T14:37:45.750Z,4.78
2023-01-23T14:40:50.915Z,4.45
2023-01-23T14:43:58.353Z,5.35
2023-01-23T14:47:03.877Z,4.72
2023-01-23T14:50:30.296Z,5.00
2023-01-23T14:53:33.357Z,4.45
2023-01-23T14:56:38.766Z,5.47
2023-01-23T14:59:43.728Z,4.85
2023-01-23T15:02:51.482Z,5.40
2023-01-23T15:05:59.651Z,5.28
2023-01-23T15:12:19.136Z,4.38
2023-01-23T15:15:23.683Z,4.57
2023-01-23T15:18:30.257Z,5.55
2023-01-23T15:21:40.007Z,5.03
2023-01-23T15:24:44.237Z,5.70
2023-01-23T15:27:47.191Z,5.32
2023-01-23T15:30:49.648Z,5.90
2023-01-23T15:33:56.848Z,4.47
2023-01-23T15:37:14.233Z,5.35
2023-01-23T15:40:18.845Z,5.30
2023-01-23T15:43:31.464Z,4.00
2023-01-23T15:46:46.379Z,5.05
2023-01-23T15:49:53.101Z,4.63
2023-01-23T15:52:57.005Z,6.93
2023-01-23T15:56:02.340Z,5.22
2023-01-23T15:59:14.074Z,4.95
2023-01-23T16:02:29.980Z,4.60
2023-01-23T16:05:37.455Z,5.00
2023-01-23T16:08:40.777Z,5.10
2023-01-23T16:11:45.523Z,5.97
2023-01-23T16:14:51.221Z,5.07
2023-01-23T16:17:55.152Z,4.57
2023-01-23T16:20:58.213Z,4.85
2023-01-23T16:24:00.393Z,4.80
2023-01-23T16:27:04.262Z,5.68
2023-01-23T16:30:16.567Z,5.70
2023-01-23T16:33:21.064Z,6.20
2023-01-23T16:36:23.451Z,5.30
2023-01-23T16:39:30.908Z,4.82
2023-01-23T16:42:34.430Z,4.13
2023-01-23T16:45:40.507Z,4.15
2023-01-23T16:48:55.239Z,4.85
2023-01-23T16:58:33.013Z,4.55
2023-01-23T17:01:51.190Z,3.55
2023-01-23T17:05:23.089Z,3.60
2023-01-23T17:08:48.890Z,3.42
2023-01-23T17:11:56.106Z,3.17
2023-01-23T17:14:59.349Z,3.17
2023-01-23T17:18:02.093Z,4.05
2023-01-23T17:21:05.955Z,3.28
2023-01-23T17:24:15.408Z,4.72
2023-01-23T17:27:17.603Z,3.83
2023-01-23T17:30:23.398Z,3.15
2023-01-23T17:33:31.748Z,2.90
2023-01-23T17:36:34.034Z,2.88
2023-01-23T17:39:36.601Z,3.05
2023-01-23T17:42:39.480Z,2.45
2023-01-23T17:45:44.364Z,3.38
2023-01-23T17:48:46.598Z,3.03
2023-01-23T17:51:48.691Z,3.20
2023-01-23T17:54:50.974Z,3.67
2023-01-23T17:57:53.920Z,2.45
2023-01-23T18:00:56.333Z,2.92
2023-01-23T18:07:52.987Z,3.85
2023-01-23T18:10:59.051Z,4.60
2023-01-23T18:14:28.915Z,5.95
2023-01-23T18:17:38.183Z,3.92
2023-01-23T18:20:40.591Z,3.92
2023-01-23T18:23:45.583Z,5.18
2023-01-23T18:26:59.542Z,3.88
2023-01-23T18:30:33.411Z,3.65
2023-01-23T18:33:52.029Z,5.85
2023-01-23T18:37:28.337Z,4.38
2023-01-23T18:40:48.870Z,4.32
2023-01-23T18:43:57.553Z,4.82
2023-01-23T18:47:05.770Z,3.72
2023-01-23T18:50:09.216Z,4.90
2023-01-23T18:53:43.685Z,3.92
2023-01-23T18:56:53.025Z,4.47
2023-01-23T19:00:04.578Z,4.13
2023-01-23T19:03:15.975Z,3.70
2023-01-23T19:06:43.332Z,5.15
2023-01-23T19:09:47.805Z,3.97
2023-01-23T19:12:58.609Z,3.88
2023-01-23T19:16:16.073Z,4.68
2023-01-23T19:19:31.211Z,4.05
2023-01-23T19:22:48.957Z,4.30
2023-01-23T19:25:51.529Z,4.22
2023-01-23T19:28:55.525Z,3.30
2023-01-23T19:32:05.029Z,4.00
2023-01-23T19:35:14.015Z,4.75
2023-01-23T19:38:18.059Z,3.63
2023-01-23T19:41:23.259Z,3.80
2023-01-23T19:44:29.135Z,4.07
2023-01-23T19:47:32.294Z,4.50
2023-01-23T19:50:36.896Z,3.75
2023-01-23T19:53:39.605Z,4.15
2023-01-23T19:56:43.337Z,4.07
2023-01-23T19:59:46.545Z,4.05
2023-01-23T20:02:49.479Z,5.15
2023-01-23T20:05:52.097Z,4.25
2023-01-23T20:08:54.339Z,4.25
2023-01-23T20:11:58.438Z,4.32
2023-01-23T20:15:00.934Z,4.57
2023-01-23T20:18:04.051Z,4.70
2023-01-23T20:21:09.116Z,5.13
2023-01-23T20:24:11.603Z,4.85
2023-01-23T20:27:13.922Z,4.32
2023-01-23T20:30:21.370Z,4.80
2023-01-23T20:33:25.501Z,4.55
2023-01-23T20:36:29.663Z,4.57
2023-01-23T20:39:32.159Z,4.07
2023-01-23T20:42:35.664Z,3.97
2023-01-23T20:45:55.864Z,4.00
2023-01-23T20:48:58.098Z,3.53
2023-01-23T20:52:21.132Z,2.90
2023-01-23T20:55:23.628Z,4.20
2023-01-23T20:58:47.993Z,4.07
2023-01-23T21:02:10.678Z,2.78
2023-01-23T21:05:12.752Z,3.45
2023-01-23T21:08:16.404Z,3.60
2023-01-23T21:11:21.348Z,3.95
2023-01-23T21:14:25.053Z,3.15
2023-01-23T21:17:27.789Z,3.95
2023-01-23T21:20:30.423Z,3.92
2023-01-23T21:23:37.140Z,3.72
2023-01-23T21:26:41.893Z,4.25
2023-01-23T21:29:54.605Z,3.83
2023-01-23T21:32:57.541Z,3.10
2023-01-23T21:36:02.673Z,3.17
2023-01-23T21:39:24.899Z,2.97
2023-01-23T21:42:27.976Z,3.08
2023-01-23T21:45:30.480Z,4.07
2023-01-23T21:48:33.995Z,3.60
2023-01-23T21:51:37.428Z,4.03
2023-01-23T21:54:42.152Z,4.57
2023-01-23T21:57:47.884Z,4.00
2023-01-23T22:01:18.687Z,4.32
2023-01-23T22:04:25.944Z,4.72
2023-01-23T22:07:28.757Z,3.25
2023-01-23T22:10:31.910Z,5.22
2023-01-23T22:13:36.985Z,4.47
2023-01-23T22:16:54.597Z,3.58
2023-01-23T22:19:58.293Z,4.13
2023-01-23T22:23:01.223Z,3.67
2023-01-23T22:26:07.950Z,3.88
2023-01-23T22:29:13.780Z,4.80
2023-01-23T22:32:18.917Z,4.80
2023-01-23T22:35:24.746Z,4.32
2023-01-23T22:38:26.927Z,3.88
2023-01-23T22:41:29.022Z,3.30
2023-01-23T22:44:31.472Z,4.20
2023-01-23T22:47:36.795Z,3.53
2023-01-23T22:50:42.662Z,4.35
2023-01-23T22:53:45.135Z,4.13
2023-01-23T22:56:49.368Z,3.78
2023-01-23T22:59:52.373Z,3.95
2023-01-23T23:02:54.439Z,3.60
2023-01-23T23:06:08.085Z,4.45
2023-01-23T23:09:11.104Z,4.22
2023-01-23T23:12:14.206Z,4.53
2023-01-23T23:15:17.868Z,4.55
2023-01-23T23:18:20.205Z,4.93
2023-01-23T23:21:29.399Z,4.13
2023-01-23T23:24:37.542Z,4.68
2023-01-23T23:27:40.311Z,4.30
2023-01-23T23:30:42.391Z,4.45
2023-01-23T23:33:45.436Z,4.20
2023-01-23T23:36:49.272Z,4.35
2023-01-23T23:39:52.531Z,4.07
2023-01-23T23:42:56.088Z,4.38
2023-01-23T23:46:00.720Z,3.78
2023-01-23T23:49:06.591Z,4.72
2023-01-23T23:52:10.311Z,4.60
2023-01-23T23:55:13.267Z,5.82
2023-01-23T23:58:16.936Z,4.18
